createdAt,value
2023-06-27T00:03:36.013Z,38.00
2023-06-27T00:08:57.916Z,38.20
2023-06-27T00:14:21.162Z,37.88
2023-06-27T00:19:43.256Z,37.88
2023-06-27T00:25:05.577Z,38.03
2023-06-27T00:30:28.131Z,38.03
2023-06-27T00:35:50.010Z,38.06
2023-06-27T00:41:11.979Z,37.77
2023-06-27T00:46:38.983Z,37.85
2023-06-27T00:52:01.379Z,38.07
2023-06-27T00:57:23.282Z,37.98
2023-06-27T01:02:48.752Z,38.37
2023-06-27T01:08:40.222Z,38.06
2023-06-27T01:14:05.246Z,38.16
2023-06-27T01:19:32.194Z,38.25
2023-06-27T01:24:54.253Z,38.24
2023-06-27T01:30:19.198Z,38.44
2023-06-27T01:35:49.828Z,38.14
2023-06-27T01:41:17.963Z,38.14
2023-06-27T01:46:40.219Z,38.19
2023-06-27T01:52:02.275Z,38.26
2023-06-27T01:57:24.228Z,38.16
2023-06-27T02:02:46.208Z,38.36
2023-06-27T02:08:08.431Z,38.30
2023-06-27T02:13:30.593Z,38.14
2023-06-27T02:18:52.490Z,38.45
2023-06-27T02:24:14.479Z,38.27
2023-06-27T02:29:36.560Z,38.31
2023-06-27T02:34:58.420Z,38.37
2023-06-27T02:40:20.443Z,38.49
2023-06-27T02:45:42.879Z,38.49
2023-06-27T02:51:04.924Z,38.16
2023-06-27T02:56:26.770Z,38.51
2023-06-27T03:01:48.694Z,38.53
2023-06-27T03:07:10.704Z,38.55
2023-06-27T03:12:32.964Z,38.66
2023-06-27T03:17:54.876Z,38.33
2023-06-27T03:23:16.853Z,38.37
2023-06-27T03:28:38.749Z,38.64
2023-06-27T03:34:01.014Z,38.76
2023-06-27T03:39:23.038Z,38.25
2023-06-27T03:44:44.875Z,38.72
2023-06-27T03:50:07.129Z,38.84
2023-06-27T03:55:28.983Z,38.95
2023-06-27T04:00:53.717Z,38.58
2023-06-27T04:06:15.841Z,38.50
2023-06-27T04:11:37.763Z,38.57
2023-06-27T04:16:59.806Z,39.00
2023-06-27T04:22:22.178Z,38.86
2023-06-27T04:27:44.076Z,38.81
2023-06-27T04:33:06.029Z,38.65
2023-06-27T04:38:31.994Z,38.78
2023-06-27T04:43:53.888Z,38.87
2023-06-27T04:49:16.000Z,39.06
2023-06-27T04:54:37.924Z,38.71
2023-06-27T04:59:59.838Z,38.68
2023-06-27T05:05:21.946Z,38.84
2023-06-27T05:10:43.840Z,38.76
2023-06-27T05:16:10.339Z,38.64
2023-06-27T05:21:32.398Z,38.97
2023-06-27T05:26:54.316Z,38.75
2023-06-27T05:32:16.242Z,38.87
2023-06-27T05:37:38.342Z,38.74
2023-06-27T05:43:00.478Z,38.87
2023-06-27T05:48:22.620Z,38.83
2023-06-27T05:53:44.566Z,38.72
2023-06-27T05:59:06.516Z,38.78
2023-06-27T06:04:28.580Z,39.02
2023-06-27T06:09:50.582Z,38.78
2023-06-27T06:15:12.622Z,38.86
2023-06-27T06:20:34.717Z,38.73
2023-06-27T06:25:56.590Z,38.65
2023-06-27T06:31:19.869Z,38.61
2023-06-27T06:36:41.782Z,38.83
2023-06-27T06:42:03.953Z,38.76
2023-06-27T06:47:26.124Z,38.69
2023-06-27T06:52:47.998Z,38.67
2023-06-27T06:58:11.813Z,38.80
2023-06-27T07:03:38.056Z,38.72
2023-06-27T07:09:00.105Z,38.88
2023-06-27T07:14:22.412Z,38.87
2023-06-27T07:19:44.432Z,38.89
2023-06-27T07:25:07.571Z,38.64
2023-06-27T07:30:29.628Z,39.15
2023-06-27T07:35:51.798Z,39.07
2023-06-27T07:41:13.810Z,38.91
2023-06-27T07:46:35.791Z,38.83
2023-06-27T07:51:58.045Z,38.97
2023-06-27T07:57:20.113Z,38.83
2023-06-27T08:02:42.142Z,38.93
2023-06-27T08:08:04.174Z,38.92
2023-06-27T08:13:26.535Z,38.86
2023-06-27T08:18:49.006Z,38.47
2023-06-27T08:24:11.123Z,39.03
2023-06-27T08:29:34.418Z,38.96
2023-06-27T08:34:56.349Z,38.79
2023-06-27T08:40:25.894Z,38.98
2023-06-27T08:45:50.651Z,38.90
2023-06-27T08:51:15.113Z,39.02
2023-06-27T08:56:38.213Z,38.85
2023-06-27T09:02:02.062Z,38.89
2023-06-27T09:07:25.354Z,38.90
2023-06-27T09:12:49.138Z,38.88
2023-06-27T09:18:11.053Z,38.94
2023-06-27T09:23:33.797Z,39.07
2023-06-27T09:28:55.632Z,38.92
2023-06-27T09:34:17.907Z,38.72
2023-06-27T09:39:39.969Z,38.87
2023-06-27T09:45:16.004Z,38.92
2023-06-27T09:50:39.150Z,39.11
2023-06-27T09:56:02.399Z,39.00
2023-06-27T10:01:25.910Z,39.24
2023-06-27T10:06:47.858Z,38.80
2023-06-27T10:12:10.301Z,38.79
2023-06-27T10:17:33.682Z,39.06
2023-06-27T10:22:58.469Z,39.11
2023-06-27T10:28:21.193Z,38.88
2023-06-27T10:33:44.097Z,38.73
2023-06-27T10:39:32.616Z,38.64
2023-06-27T10:45:10.951Z,38.03
2023-06-27T10:50:36.656Z,38.14
2023-06-27T10:55:58.545Z,38.20
2023-06-27T11:01:22.378Z,37.81
2023-06-27T11:06:46.916Z,38.15
2023-06-27T11:12:16.099Z,37.95
2023-06-27T11:17:40.927Z,37.86
2023-06-27T11:23:05.808Z,37.35
2023-06-27T11:28:27.934Z,37.34
2023-06-27T11:33:58.326Z,36.98
2023-06-27T11:39:20.252Z,37.15
2023-06-27T11:44:42.236Z,37.07
2023-06-27T11:50:11.840Z,36.91
2023-06-27T11:55:42.557Z,36.86
2023-06-27T12:01:16.060Z,36.86
2023-06-27T12:06:37.968Z,36.97
2023-06-27T12:12:00.973Z,37.18
2023-06-27T12:17:23.137Z,37.19
2023-06-27T12:22:45.100Z,37.31
2023-06-27T12:28:08.010Z,37.06
2023-06-27T12:33:30.737Z,37.22
2023-06-27T12:38:53.475Z,37.13
2023-06-27T12:44:15.658Z,36.90
2023-06-27T12:49:37.593Z,37.02
2023-06-27T12:54:59.630Z,36.96
2023-06-27T13:00:22.681Z,37.04
2023-06-27T13:05:44.786Z,36.83
2023-06-27T13:11:06.718Z,36.52
2023-06-27T13:16:28.621Z,36.49
2023-06-27T13:21:51.956Z,36.61
2023-06-27T13:27:14.714Z,36.84
2023-06-27T13:32:36.757Z,36.48
2023-06-27T13:38:01.871Z,36.57
2023-06-27T13:43:24.181Z,36.33
2023-06-27T13:48:46.281Z,36.33
2023-06-27T13:54:08.449Z,36.28
2023-06-27T13:59:30.442Z,36.47
2023-06-27T14:04:52.708Z,36.52
2023-06-27T14:10:14.604Z,36.46
2023-06-27T14:15:37.960Z,36.45
2023-06-27T14:20:59.862Z,36.32
2023-06-27T14:26:21.886Z,36.16
2023-06-27T14:31:43.876Z,36.21
2023-06-27T14:37:05.998Z,36.30
2023-06-27T14:42:27.901Z,36.46
2023-06-27T14:47:49.801Z,36.35
2023-06-27T14:53:12.131Z,35.99
2023-06-27T14:58:34.148Z,36.21
2023-06-27T15:03:56.059Z,35.92
2023-06-27T15:09:19.025Z,36.19
2023-06-27T15:14:40.974Z,36.29
2023-06-27T15:20:03.371Z,35.92
2023-06-27T15:25:25.222Z,35.67
2023-06-27T15:30:47.109Z,35.70
2023-06-27T15:36:08.971Z,35.93
2023-06-27T15:41:30.889Z,35.91
2023-06-27T15:46:53.277Z,35.91
2023-06-27T15:52:15.152Z,35.98
2023-06-27T15:57:37.189Z,35.89
2023-06-27T16:02:59.144Z,35.72
2023-06-27T16:08:21.156Z,33.95
2023-06-27T16:13:43.290Z,34.31
2023-06-27T16:19:05.192Z,34.36
2023-06-27T16:24:27.032Z,34.38
2023-06-27T16:29:48.869Z,34.31
2023-06-27T16:35:11.353Z,34.60
2023-06-27T16:40:36.026Z,34.45
2023-06-27T16:45:57.933Z,34.13
2023-06-27T16:51:19.810Z,34.44
2023-06-27T16:56:41.668Z,34.14
2023-06-27T17:02:03.701Z,34.31
2023-06-27T17:07:25.569Z,33.95
2023-06-27T17:12:47.561Z,34.06
2023-06-27T17:18:09.549Z,34.13
2023-06-27T17:23:31.445Z,33.62
2023-06-27T17:28:53.310Z,33.65
2023-06-27T17:34:15.236Z,33.78
2023-06-27T17:39:37.050Z,33.35
2023-06-27T17:44:59.542Z,33.21
2023-06-27T17:50:21.544Z,32.95
2023-06-27T17:55:44.532Z,32.63
2023-06-27T18:01:07.033Z,32.57
2023-06-27T18:06:29.021Z,32.39
2023-06-27T18:11:50.902Z,32.54
2023-06-27T18:17:12.841Z,32.52
2023-06-27T18:22:34.681Z,32.49
2023-06-27T18:27:57.167Z,32.14
2023-06-27T18:33:19.150Z,32.19
2023-06-27T18:38:42.710Z,32.16
2023-06-27T18:44:04.696Z,32.01
2023-06-27T18:49:26.597Z,31.96
2023-06-27T18:54:48.651Z,32.21
2023-06-27T19:00:10.971Z,32.30
2023-06-27T19:05:34.502Z,31.96
2023-06-27T19:10:56.379Z,32.04
2023-06-27T19:16:18.237Z,31.86
2023-06-27T19:21:40.966Z,31.68
2023-06-27T19:27:02.996Z,31.86
2023-06-27T19:32:24.815Z,31.80
2023-06-27T19:37:46.739Z,31.65
2023-06-27T19:43:08.569Z,31.38
2023-06-27T19:48:30.393Z,31.81
2023-06-27T19:53:52.240Z,31.42
2023-06-27T19:59:14.165Z,31.52
2023-06-27T20:04:39.431Z,31.34
2023-06-27T20:10:14.954Z,31.23
2023-06-27T20:15:41.034Z,31.64
2023-06-27T20:21:02.941Z,31.19
2023-06-27T20:26:24.783Z,31.62
2023-06-27T20:31:46.818Z,31.23
2023-06-27T20:37:08.629Z,31.67
2023-06-27T20:42:31.253Z,31.73
2023-06-27T20:47:53.122Z,31.29
2023-06-27T20:53:15.046Z,31.59
2023-06-27T20:58:36.900Z,31.71
2023-06-27T21:04:00.647Z,31.98
2023-06-27T21:09:22.858Z,31.90
2023-06-27T21:14:44.741Z,32.22
2023-06-27T21:20:08.066Z,32.22
2023-06-27T21:25:30.377Z,32.16
2023-06-27T21:30:52.786Z,32.26
2023-06-27T21:36:14.674Z,32.32
2023-06-27T21:41:36.490Z,32.52
2023-06-27T21:46:58.317Z,32.78
2023-06-27T21:52:20.137Z,32.84
2023-06-27T21:57:41.940Z,32.93
2023-06-27T22:03:04.007Z,33.05
2023-06-27T22:08:26.479Z,32.85
2023-06-27T22:13:48.275Z,33.10
2023-06-27T22:19:10.083Z,33.21
2023-06-27T22:24:32.766Z,33.28
2023-06-27T22:29:54.644Z,33.36
2023-06-27T22:35:16.536Z,33.67
2023-06-27T22:40:38.524Z,33.34
2023-06-27T22:46:00.391Z,33.81
2023-06-27T22:51:22.365Z,33.75
2023-06-27T22:56:44.175Z,34.11
2023-06-27T23:02:06.425Z,33.93
2023-06-27T23:07:28.312Z,33.80
2023-06-27T23:12:51.128Z,34.04
2023-06-27T23:18:18.400Z,34.07
2023-06-27T23:23:41.768Z,34.23
2023-06-27T23:29:07.340Z,34.35
2023-06-27T23:34:29.205Z,34.34
2023-06-27T23:39:51.069Z,34.49
2023-06-27T23:45:13.281Z,34.49
2023-06-27T23:50:35.199Z,34.64
2023-06-27T23:55:57.189Z,34.79
